Lorena, Texas
Current Conditions -  °F | °C
As of 10:15 AM on Wednesday 28 Jan 2015 (Local Time) from KPWG Reporting Station
Clear Clear  
Wind Chill: 64°   Ceiling: Unl
Heat Index: 64°   Visibility: 10mi
Dew Point: 46°   Wind: 5mph
Humidity: 52%   Direction: 170°S
Pressure: 30.17"   Gusts: NA
Location:  31.39°N, 97.22°W
Report Text: KPWG 281615Z AUTO 17004KT 10SM CLR 18/08 A3017 RMK AO1
Loading
Personal Weather Stations






























Interactive Weather Map New forecast layout! Learn more

10-Day Weather Forecast

Advertisements
Track Severe Weather on mobile